Time;durP1;ratioP1;P1;durP2;ratioP2;P2;SDS_P1;SDS_P2;PMS_P1;PMS_P2;Temp;Humidity;BMP_temperature;BMP_pressure;BME280_temperature;BME280_humidity;BME280_pressure;Samples;Min_cycle;Max_cycle;Signal;HPM_P1;HPM_P2
2022/10/25 00:01:30;;;;;;;;;;;25.40;99.90;;;;;;4174105;28;19929;-67
2022/10/25 00:03:35;;;;;;;;;;;25.20;99.90;;;;;;4169845;28;19975;-67
2022/10/25 00:05:43;;;;;;;;;;;25.20;99.90;;;;;;4163124;28;20362;-70
2022/10/25 00:07:48;;;;;;;;;;;25.20;99.90;;;;;;4168347;28;20289;-67
2022/10/25 00:09:52;;;;;;;;;;;25.30;99.90;;;;;;4173439;28;19933;-70
2022/10/25 00:11:56;;;;;;;;;;;25.10;99.90;;;;;;4173801;28;19935;-70
2022/10/25 00:14:02;;;;;;;;;;;25.10;99.90;;;;;;4175232;28;20027;-70
2022/10/25 00:16:12;;;;;;;;;;;25.20;99.90;;;;;;4169695;28;19951;-70
2022/10/25 00:18:18;;;;;;;;;;;25.20;99.90;;;;;;4172961;28;19970;-72
2022/10/25 00:20:22;;;;;;;;;;;25.40;99.90;;;;;;4174157;28;19928;-70
2022/10/25 00:22:27;;;;;;;;;;;25.40;99.80;;;;;;4138013;28;20037;-70
2022/10/25 00:24:36;;;;;;;;;;;25.40;99.90;;;;;;4166967;28;20310;-71
2022/10/25 00:26:40;;;;;;;;;;;25.50;99.90;;;;;;4174901;28;19964;-70
2022/10/25 00:28:44;;;;;;;;;;;25.50;99.70;;;;;;4150030;28;19929;-70
2022/10/25 00:30:57;;;;;;;;;;;25.50;99.70;;;;;;4131075;28;19933;-70
2022/10/25 00:33:04;;;;;;;;;;;25.60;99.60;;;;;;4133667;28;19988;-69
2022/10/25 00:35:10;;;;;;;;;;;25.70;99.50;;;;;;4174722;28;20024;-70
2022/10/25 00:37:18;;;;;;;;;;;25.80;99.50;;;;;;4174062;28;20437;-69
2022/10/25 00:39:23;;;;;;;;;;;25.80;99.60;;;;;;4160517;28;19940;-71
2022/10/25 00:41:29;;;;;;;;;;;25.70;99.00;;;;;;4182098;28;19929;-69
2022/10/25 00:43:39;;;;;;;;;;;25.80;99.30;;;;;;4164776;28;20346;-70
2022/10/25 00:45:45;;;;;;;;;;;25.70;99.10;;;;;;4191779;28;20544;-72
2022/10/25 00:47:52;;;;;;;;;;;25.80;99.00;;;;;;4207726;28;19936;-69
2022/10/25 00:50:36;;;;;;;;;;;25.80;98.50;;;;;;4189363;28;19967;-70
2022/10/25 00:52:40;;;;;;;;;;;25.80;99.10;;;;;;4152840;28;20366;-70
2022/10/25 00:54:45;;;;;;;;;;;25.90;99.20;;;;;;4145995;28;19929;-69
2022/10/25 00:56:53;;;;;;;;;;;26.00;98.90;;;;;;4152787;28;20375;-70
2022/10/25 00:58:59;;;;;;;;;;;26.10;98.10;;;;;;4158018;28;19968;-69
2022/10/25 01:01:04;;;;;;;;;;;26.00;98.30;;;;;;4158351;28;19939;-70
2022/10/25 01:03:14;;;;;;;;;;;26.00;98.40;;;;;;4161234;28;19933;-70
2022/10/25 01:05:34;;;;;;;;;;;26.00;97.90;;;;;;4157298;28;19929;-70
2022/10/25 01:07:41;;;;;;;;;;;26.00;97.80;;;;;;4157171;28;19929;-69
2022/10/25 01:09:58;;;;;;;;;;;26.10;97.80;;;;;;4163548;28;19943;-68
2022/10/25 01:12:03;;;;;;;;;;;26.20;97.70;;;;;;4170269;28;19975;-68
2022/10/25 01:14:16;;;;;;;;;;;26.30;97.70;;;;;;4166370;28;20028;-68
2022/10/25 01:16:33;;;;;;;;;;;26.40;97.50;;;;;;4151546;28;19929;-68
2022/10/25 01:18:47;;;;;;;;;;;26.50;97.30;;;;;;4163044;28;19988;-67
2022/10/25 01:21:11;;;;;;;;;;;26.50;96.90;;;;;;4170306;28;19952;-69
2022/10/25 01:23:28;;;;;;;;;;;26.60;96.50;;;;;;4173692;28;20580;-68
2022/10/25 01:25:38;;;;;;;;;;;26.60;96.30;;;;;;4198119;28;19924;-68
2022/10/25 01:28:00;;;;;;;;;;;26.70;96.30;;;;;;4207859;28;19981;-67
2022/10/25 01:30:12;;;;;;;;;;;26.60;96.20;;;;;;4196139;28;19938;-67
2022/10/25 01:32:20;;;;;;;;;;;26.60;96.30;;;;;;4180434;28;20590;-67
2022/10/25 01:34:26;;;;;;;;;;;26.70;96.00;;;;;;4189702;28;20030;-66
2022/10/25 01:36:40;;;;;;;;;;;26.80;96.10;;;;;;4165900;28;19960;-67
2022/10/25 01:38:48;;;;;;;;;;;27.00;96.30;;;;;;4170326;28;19939;-67
2022/10/25 01:40:54;;;;;;;;;;;26.90;95.60;;;;;;4188015;28;20470;-67
2022/10/25 01:43:18;;;;;;;;;;;27.00;96.20;;;;;;4200776;28;19936;-66
2022/10/25 01:45:27;;;;;;;;;;;27.00;95.40;;;;;;4187688;28;20319;-67
2022/10/25 01:47:37;;;;;;;;;;;27.00;95.70;;;;;;4191199;28;20016;-66
2022/10/25 01:49:49;;;;;;;;;;;27.00;95.40;;;;;;4190299;28;20020;-67
2022/10/25 01:51:53;;;;;;;;;;;27.10;95.40;;;;;;4176177;28;19933;-67
2022/10/25 01:54:01;;;;;;;;;;;27.10;94.60;;;;;;4189283;28;19935;-66
2022/10/25 01:56:09;;;;;;;;;;;27.30;94.70;;;;;;4178897;28;19924;-67
2022/10/25 01:58:21;;;;;;;;;;;27.30;94.00;;;;;;4192215;28;19923;-66
2022/10/25 02:00:25;;;;;;;;;;;27.30;93.50;;;;;;4185640;28;20031;-68
2022/10/25 02:02:38;;;;;;;;;;;27.20;93.90;;;;;;4177316;28;19929;-67
2022/10/25 02:04:55;;;;;;;;;;;27.10;93.80;;;;;;4195560;28;19928;-67
2022/10/25 02:07:10;;;;;;;;;;;27.30;93.60;;;;;;4199837;28;20038;-67
2022/10/25 02:09:21;;;;;;;;;;;27.30;93.80;;;;;;4191821;28;19963;-67
2022/10/25 02:11:30;;;;;;;;;;;27.30;92.80;;;;;;4191414;28;20024;-67
2022/10/25 02:13:43;;;;;;;;;;;27.40;93.10;;;;;;4214111;28;19928;-67
2022/10/25 02:15:54;;;;;;;;;;;27.40;93.10;;;;;;4190763;28;19956;-67
2022/10/25 02:18:12;;;;;;;;;;;27.50;93.30;;;;;;4190207;28;20370;-67
2022/10/25 02:20:21;;;;;;;;;;;27.60;93.10;;;;;;4161671;28;19971;-67
2022/10/25 02:22:30;;;;;;;;;;;27.70;93.10;;;;;;4149894;28;20461;-67
2022/10/25 02:24:46;;;;;;;;;;;27.70;93.00;;;;;;4157973;28;19929;-66
2022/10/25 02:26:51;;;;;;;;;;;27.80;93.10;;;;;;4156835;28;20500;-67
2022/10/25 02:29:00;;;;;;;;;;;27.80;93.00;;;;;;4174402;28;19975;-67
2022/10/25 02:31:06;;;;;;;;;;;27.70;92.90;;;;;;4153109;28;20020;-68
2022/10/25 02:33:13;;;;;;;;;;;27.80;93.10;;;;;;4171712;28;19925;-66
2022/10/25 02:35:18;;;;;;;;;;;27.90;92.50;;;;;;4156006;28;19925;-67
2022/10/25 02:37:23;;;;;;;;;;;28.00;93.00;;;;;;4172539;28;19929;-66
2022/10/25 02:39:27;;;;;;;;;;;28.10;93.20;;;;;;4172919;28;19975;-66
2022/10/25 02:41:34;;;;;;;;;;;28.00;92.30;;;;;;4152595;28;20374;-66
2022/10/25 02:43:40;;;;;;;;;;;28.10;92.40;;;;;;4173517;28;19932;-66
2022/10/25 02:45:44;;;;;;;;;;;28.20;92.40;;;;;;4172219;28;19932;-67
2022/10/25 02:47:53;;;;;;;;;;;28.30;92.30;;;;;;4156275;28;19964;-66
2022/10/25 02:49:57;;;;;;;;;;;28.30;92.60;;;;;;4169846;28;20499;-66
2022/10/25 02:52:09;;;;;;;;;;;28.30;92.00;;;;;;4170321;28;20022;-65
2022/10/25 02:54:20;;;;;;;;;;;28.30;91.90;;;;;;4170216;28;19940;-66
2022/10/25 02:56:24;;;;;;;;;;;28.40;91.80;;;;;;4189923;28;20302;-66
2022/10/25 02:58:30;;;;;;;;;;;28.40;91.90;;;;;;4174828;28;19928;-65
2022/10/25 03:00:37;;;;;;;;;;;28.40;92.00;;;;;;4173808;28;19933;-65
2022/10/25 03:02:41;;;;;;;;;;;28.30;92.00;;;;;;4201266;28;19947;-65
2022/10/25 03:04:46;;;;;;;;;;;28.30;92.20;;;;;;4207996;28;19932;-65
2022/10/25 03:06:53;;;;;;;;;;;28.20;91.70;;;;;;4210458;28;19936;-65
2022/10/25 03:08:59;;;;;;;;;;;28.30;92.00;;;;;;4201551;28;20291;-65
2022/10/25 03:11:04;;;;;;;;;;;28.40;92.00;;;;;;4191256;28;19968;-67
2022/10/25 03:13:13;;;;;;;;;;;28.40;92.20;;;;;;4202768;28;19928;-67
2022/10/25 03:15:17;;;;;;;;;;;28.40;92.60;;;;;;4187326;28;19952;-66
2022/10/25 03:17:21;;;;;;;;;;;28.50;92.30;;;;;;4191518;28;19995;-65
2022/10/25 03:19:29;;;;;;;;;;;28.50;91.60;;;;;;4196008;28;19995;-66
2022/10/25 03:21:34;;;;;;;;;;;28.70;91.80;;;;;;4189723;28;20730;-66
2022/10/25 03:23:45;;;;;;;;;;;28.80;91.60;;;;;;4211744;28;19928;-66
2022/10/25 03:25:54;;;;;;;;;;;28.80;91.70;;;;;;4184075;28;19990;-66
2022/10/25 03:28:07;;;;;;;;;;;28.90;91.30;;;;;;4180656;28;20343;-66
2022/10/25 03:30:14;;;;;;;;;;;28.70;91.90;;;;;;4159386;28;20539;-65
2022/10/25 03:32:22;;;;;;;;;;;28.90;91.70;;;;;;4183920;28;19931;-66
2022/10/25 03:34:27;;;;;;;;;;;28.90;91.40;;;;;;4177710;28;20284;-67
2022/10/25 03:36:35;;;;;;;;;;;28.70;91.60;;;;;;4193938;28;20429;-65
2022/10/25 03:38:43;;;;;;;;;;;28.80;91.80;;;;;;4194216;28;19967;-67
2022/10/25 03:40:48;;;;;;;;;;;28.80;91.50;;;;;;4194713;28;20051;-67
2022/10/25 03:42:52;;;;;;;;;;;28.80;92.00;;;;;;4190532;28;19978;-66
2022/10/25 03:44:58;;;;;;;;;;;28.90;91.40;;;;;;4193235;28;20334;-66
2022/10/25 03:47:05;;;;;;;;;;;29.10;91.20;;;;;;4194373;28;19928;-66
2022/10/25 03:49:09;;;;;;;;;;;29.30;91.00;;;;;;4193128;28;20405;-67
2022/10/25 03:51:14;;;;;;;;;;;29.40;90.90;;;;;;4186935;28;19929;-66
2022/10/25 03:53:18;;;;;;;;;;;29.40;90.80;;;;;;4189910;28;19928;-65
2022/10/25 03:55:22;;;;;;;;;;;29.50;90.70;;;;;;4193817;28;19983;-64
2022/10/25 03:57:29;;;;;;;;;;;29.50;90.80;;;;;;4185253;28;19928;-65
2022/10/25 03:59:33;;;;;;;;;;;29.50;90.50;;;;;;4174241;28;20379;-65
2022/10/25 04:01:38;;;;;;;;;;;29.60;90.60;;;;;;4193908;28;19935;-66
2022/10/25 04:03:45;;;;;;;;;;;29.70;90.80;;;;;;4190492;28;20031;-65
2022/10/25 04:05:49;;;;;;;;;;;29.60;90.60;;;;;;4195827;28;19974;-66
2022/10/25 04:07:54;;;;;;;;;;;29.40;90.50;;;;;;4192720;28;19932;-66
2022/10/25 04:10:02;;;;;;;;;;;29.40;90.50;;;;;;4170418;28;19938;-65
2022/10/25 04:12:07;;;;;;;;;;;29.50;91.00;;;;;;4158257;28;19928;-65
2022/10/25 04:14:12;;;;;;;;;;;29.40;90.80;;;;;;4197596;28;19970;-65
2022/10/25 04:16:18;;;;;;;;;;;29.50;90.60;;;;;;4194485;28;19929;-66
2022/10/25 04:18:23;;;;;;;;;;;29.60;90.70;;;;;;4194472;28;19960;-63
2022/10/25 04:20:27;;;;;;;;;;;29.60;90.60;;;;;;4195003;28;19928;-64
2022/10/25 04:22:35;;;;;;;;;;;29.60;90.70;;;;;;4210174;28;19928;-65
2022/10/25 04:24:44;;;;;;;;;;;29.70;90.60;;;;;;4178349;28;20046;-64
2022/10/25 04:26:48;;;;;;;;;;;29.90;90.60;;;;;;4176786;28;19932;-64
2022/10/25 04:28:55;;;;;;;;;;;30.00;90.60;;;;;;4188862;28;19982;-65
2022/10/25 04:31:01;;;;;;;;;;;30.00;90.00;;;;;;4194184;28;19967;-66
2022/10/25 04:33:09;;;;;;;;;;;29.80;90.10;;;;;;4194963;28;19982;-65
2022/10/25 04:35:16;;;;;;;;;;;29.90;89.70;;;;;;4209849;28;19924;-65
2022/10/25 04:37:20;;;;;;;;;;;29.90;90.30;;;;;;4194737;28;20374;-66
2022/10/25 04:39:25;;;;;;;;;;;29.90;89.70;;;;;;4193871;28;20393;-66
2022/10/25 04:41:33;;;;;;;;;;;29.90;90.10;;;;;;4189363;28;20011;-67
2022/10/25 04:43:37;;;;;;;;;;;30.20;90.20;;;;;;4181388;28;19924;-67
2022/10/25 04:45:42;;;;;;;;;;;30.30;90.10;;;;;;4187399;28;20442;-68
2022/10/25 04:47:49;;;;;;;;;;;30.50;89.50;;;;;;4191394;28;20348;-66
2022/10/25 04:49:53;;;;;;;;;;;30.60;89.20;;;;;;4184391;28;20414;-68
2022/10/25 04:51:57;;;;;;;;;;;30.60;89.20;;;;;;4192982;28;20353;-66
2022/10/25 04:54:04;;;;;;;;;;;30.70;88.40;;;;;;4207755;28;19985;-63
2022/10/25 04:56:11;;;;;;;;;;;30.70;87.50;;;;;;4193345;28;20041;-64
2022/10/25 04:58:15;;;;;;;;;;;30.60;87.70;;;;;;4193043;28;19986;-64
2022/10/25 05:00:34;;;;;;;;;;;30.50;87.60;;;;;;4179390;28;19981;-64
2022/10/25 05:02:40;;;;;;;;;;;30.60;88.80;;;;;;4193947;28;19970;-64
2022/10/25 05:04:45;;;;;;;;;;;30.70;88.50;;;;;;4207256;28;19935;-64
2022/10/25 05:06:51;;;;;;;;;;;30.80;87.10;;;;;;4195474;28;19933;-64
2022/10/25 05:08:55;;;;;;;;;;;30.80;86.60;;;;;;4193876;28;19983;-65
2022/10/25 05:10:59;;;;;;;;;;;30.90;87.20;;;;;;4209113;28;19932;-65
2022/10/25 05:13:07;;;;;;;;;;;31.00;86.80;;;;;;4193369;28;19928;-65
2022/10/25 05:15:12;;;;;;;;;;;30.80;86.30;;;;;;4194142;28;19935;-65
2022/10/25 05:17:17;;;;;;;;;;;30.70;87.30;;;;;;4193774;28;19932;-65
2022/10/25 05:19:23;;;;;;;;;;;30.80;87.50;;;;;;4194018;28;19935;-65
2022/10/25 05:21:29;;;;;;;;;;;30.80;86.10;;;;;;4193715;28;19929;-64
2022/10/25 05:23:33;;;;;;;;;;;30.80;86.20;;;;;;4194486;28;19939;-64
2022/10/25 05:25:40;;;;;;;;;;;30.80;86.50;;;;;;4204418;28;19924;-66
2022/10/25 05:27:44;;;;;;;;;;;30.80;87.30;;;;;;4194018;28;20386;-65
2022/10/25 05:29:48;;;;;;;;;;;30.90;87.30;;;;;;4204032;28;19924;-65
2022/10/25 05:31:56;;;;;;;;;;;31.10;86.80;;;;;;4191999;28;20003;-65
2022/10/25 05:34:00;;;;;;;;;;;31.10;86.80;;;;;;4193736;28;19935;-66
2022/10/25 05:36:08;;;;;;;;;;;31.10;86.90;;;;;;4208590;28;20468;-64
2022/10/25 05:38:26;;;;;;;;;;;31.20;86.90;;;;;;4193163;28;19929;-65
2022/10/25 05:40:37;;;;;;;;;;;31.30;86.30;;;;;;4207084;28;20261;-65
2022/10/25 05:42:42;;;;;;;;;;;31.30;85.90;;;;;;4172333;28;20260;-65
2022/10/25 05:44:51;;;;;;;;;;;31.30;86.20;;;;;;4191864;28;20417;-66
2022/10/25 05:46:55;;;;;;;;;;;31.20;85.10;;;;;;4205490;28;19960;-65
2022/10/25 05:48:59;;;;;;;;;;;31.10;85.70;;;;;;4188139;28;20125;-65
2022/10/25 05:51:19;;;;;;;;;;;31.10;85.70;;;;;;4206459;28;20022;-65
2022/10/25 05:53:41;;;;;;;;;;;31.20;85.70;;;;;;4193419;28;19952;-65
2022/10/25 05:55:45;;;;;;;;;;;31.30;86.00;;;;;;4188197;28;19924;-65
2022/10/25 05:57:52;;;;;;;;;;;31.30;86.20;;;;;;4184685;28;19960;-65
2022/10/25 05:59:56;;;;;;;;;;;31.30;85.90;;;;;;4176814;28;19960;-65
2022/10/25 06:02:01;;;;;;;;;;;31.30;85.90;;;;;;4193200;28;19985;-65
2022/10/25 06:04:08;;;;;;;;;;;31.20;87.90;;;;;;4193666;28;19960;-65
2022/10/25 06:06:13;;;;;;;;;;;31.20;86.70;;;;;;4190210;28;20405;-65
2022/10/25 06:08:16;;;;;;;;;;;31.10;86.20;;;;;;4192052;28;19935;-65
2022/10/25 06:10:25;;;;;;;;;;;31.10;86.20;;;;;;4192477;28;20447;-65
2022/10/25 06:12:30;;;;;;;;;;;31.10;86.40;;;;;;4204454;28;19951;-65
2022/10/25 06:14:35;;;;;;;;;;;31.20;86.20;;;;;;4192470;28;20393;-65
2022/10/25 06:16:39;;;;;;;;;;;31.30;87.00;;;;;;4192425;28;20556;-65
2022/10/25 06:18:44;;;;;;;;;;;31.30;86.90;;;;;;4193631;28;19933;-65
2022/10/25 06:20:48;;;;;;;;;;;31.20;85.90;;;;;;4192901;28;19928;-65
2022/10/25 06:22:53;;;;;;;;;;;31.20;86.30;;;;;;4176186;28;19928;-65
2022/10/25 06:24:58;;;;;;;;;;;31.20;86.80;;;;;;4192981;28;19928;-65
2022/10/25 06:27:03;;;;;;;;;;;31.20;86.60;;;;;;4192735;28;20485;-65
2022/10/25 06:29:08;;;;;;;;;;;31.40;86.80;;;;;;4190199;28;19978;-65
2022/10/25 06:31:14;;;;;;;;;;;31.50;86.90;;;;;;4190049;28;19940;-65
2022/10/25 06:33:19;;;;;;;;;;;31.50;87.60;;;;;;4192361;28;19928;-65
2022/10/25 06:35:32;;;;;;;;;;;31.50;86.00;;;;;;4192984;28;19929;-65
2022/10/25 06:37:36;;;;;;;;;;;31.30;85.20;;;;;;4183856;28;20358;-65
2022/10/25 06:39:41;;;;;;;;;;;31.30;85.90;;;;;;4189362;28;19934;-64
2022/10/25 06:41:49;;;;;;;;;;;31.40;86.10;;;;;;4191971;28;19928;-65
2022/10/25 06:43:57;;;;;;;;;;;31.40;85.90;;;;;;4193258;28;19924;-65
2022/10/25 06:46:28;;;;;;;;;;;31.50;85.70;;;;;;4204008;28;20068;-64
2022/10/25 06:48:35;;;;;;;;;;;31.40;85.10;;;;;;4209346;28;19954;-65
2022/10/25 06:50:39;;;;;;;;;;;31.40;84.40;;;;;;4208226;28;20344;-65
2022/10/25 06:52:43;;;;;;;;;;;31.50;84.00;;;;;;4195320;28;19935;-65
2022/10/25 06:54:50;;;;;;;;;;;31.50;84.70;;;;;;4214147;28;20338;-65
2022/10/25 06:56:54;;;;;;;;;;;31.60;84.60;;;;;;4207990;28;19951;-64
2022/10/25 06:58:58;;;;;;;;;;;31.60;84.00;;;;;;4196176;28;20367;-65
2022/10/25 07:01:06;;;;;;;;;;;31.70;84.30;;;;;;4196163;28;19950;-65
2022/10/25 07:03:10;;;;;;;;;;;31.80;84.60;;;;;;4195256;28;19928;-65
2022/10/25 07:05:14;;;;;;;;;;;31.80;85.30;;;;;;4195961;28;20449;-65
2022/10/25 07:07:19;;;;;;;;;;;31.80;86.20;;;;;;4188611;28;19995;-65
2022/10/25 07:09:24;;;;;;;;;;;31.80;85.70;;;;;;4192439;28;19928;-64
2022/10/25 07:11:29;;;;;;;;;;;31.80;84.70;;;;;;4209264;28;19947;-65
2022/10/25 07:13:33;;;;;;;;;;;31.80;83.90;;;;;;4202689;28;20298;-65
2022/10/25 07:15:39;;;;;;;;;;;31.80;84.00;;;;;;4194417;28;19932;-65
2022/10/25 07:17:43;;;;;;;;;;;31.80;84.10;;;;;;4194164;28;20004;-65
2022/10/25 07:19:48;;;;;;;;;;;31.80;84.20;;;;;;4195253;28;19928;-65
2022/10/25 07:21:52;;;;;;;;;;;31.80;84.40;;;;;;4211171;28;19942;-65
2022/10/25 07:23:57;;;;;;;;;;;31.80;84.40;;;;;;4194581;28;19970;-65
2022/10/25 07:26:07;;;;;;;;;;;31.80;84.40;;;;;;4197840;28;19968;-65
2022/10/25 07:28:26;;;;;;;;;;;31.80;84.50;;;;;;4210604;28;19936;-65
2022/10/25 07:30:34;;;;;;;;;;;31.90;84.70;;;;;;4195258;28;19989;-65
2022/10/25 07:32:42;;;;;;;;;;;31.90;85.40;;;;;;4212481;28;19951;-65
2022/10/25 07:34:49;;;;;;;;;;;31.90;85.30;;;;;;4212714;28;19934;-65
2022/10/25 07:36:56;;;;;;;;;;;31.90;84.90;;;;;;4200304;28;19974;-65
2022/10/25 07:39:17;;;;;;;;;;;31.90;84.10;;;;;;4210609;28;20706;-65
2022/10/25 07:41:41;;;;;;;;;;;31.90;83.70;;;;;;4222080;28;19965;-66
2022/10/25 07:43:50;;;;;;;;;;;31.90;83.70;;;;;;4199907;28;19973;-65
2022/10/25 07:45:58;;;;;;;;;;;31.80;83.80;;;;;;4202323;28;20023;-66
2022/10/25 07:48:03;;;;;;;;;;;31.90;84.50;;;;;;4192096;28;19924;-67
2022/10/25 07:50:12;;;;;;;;;;;31.90;84.20;;;;;;4193451;28;19928;-67
2022/10/25 07:52:19;;;;;;;;;;;31.90;84.40;;;;;;4194776;28;20373;-67
2022/10/25 07:54:24;;;;;;;;;;;31.90;84.10;;;;;;4191228;28;20305;-65
2022/10/25 07:56:29;;;;;;;;;;;31.90;84.40;;;;;;4194306;28;20313;-68
2022/10/25 07:58:37;;;;;;;;;;;32.00;84.50;;;;;;4185986;28;19994;-67
2022/10/25 08:00:42;;;;;;;;;;;32.10;84.50;;;;;;4194963;28;19959;-66
2022/10/25 08:02:46;;;;;;;;;;;31.90;83.50;;;;;;4192598;28;19935;-65
2022/10/25 08:04:53;;;;;;;;;;;31.90;83.90;;;;;;4199228;28;19929;-67
2022/10/25 08:07:03;;;;;;;;;;;31.80;83.90;;;;;;4147360;28;19936;-67
2022/10/25 08:09:08;;;;;;;;;;;31.90;84.50;;;;;;4154673;28;19936;-65
2022/10/25 08:11:24;;;;;;;;;;;31.90;84.70;;;;;;4126926;28;20393;-66
2022/10/25 08:13:28;;;;;;;;;;;31.90;84.90;;;;;;4134661;28;19936;-66
2022/10/25 08:15:34;;;;;;;;;;;31.90;85.50;;;;;;4141836;28;19925;-67
2022/10/25 08:17:39;;;;;;;;;;;32.00;85.50;;;;;;4141094;28;19940;-67
2022/10/25 08:19:43;;;;;;;;;;;32.00;85.30;;;;;;4161513;28;19925;-66
2022/10/25 08:21:53;;;;;;;;;;;32.00;85.20;;;;;;4134379;28;19932;-65
2022/10/25 08:24:02;;;;;;;;;;;32.10;85.30;;;;;;4157696;28;20052;-66
2022/10/25 08:26:06;;;;;;;;;;;32.10;85.40;;;;;;4185262;28;19932;-66
2022/10/25 08:28:11;;;;;;;;;;;32.10;84.80;;;;;;4193224;28;19931;-67
2022/10/25 08:30:17;;;;;;;;;;;32.20;84.70;;;;;;4193796;28;19928;-66
2022/10/25 08:32:22;;;;;;;;;;;32.20;84.60;;;;;;4193442;28;20014;-66
2022/10/25 08:34:26;;;;;;;;;;;32.20;84.70;;;;;;4193822;28;19928;-65
2022/10/25 08:36:37;;;;;;;;;;;32.10;85.10;;;;;;4193873;28;19925;-66
2022/10/25 08:38:42;;;;;;;;;;;32.10;85.80;;;;;;4192850;28;19929;-65
2022/10/25 08:40:53;;;;;;;;;;;32.10;85.90;;;;;;4193970;28;19928;-66
2022/10/25 08:43:02;;;;;;;;;;;32.20;86.50;;;;;;4177789;28;19925;-65
2022/10/25 08:45:12;;;;;;;;;;;32.20;87.00;;;;;;4194441;28;20441;-65
2022/10/25 08:47:21;;;;;;;;;;;32.10;87.70;;;;;;4177275;28;19933;-66
2022/10/25 08:49:34;;;;;;;;;;;32.10;87.90;;;;;;4187805;28;19935;-65
2022/10/25 08:51:38;;;;;;;;;;;32.20;87.90;;;;;;4194185;28;20393;-66
2022/10/25 08:53:44;;;;;;;;;;;32.20;87.70;;;;;;4177077;28;19928;-65
2022/10/25 08:55:50;;;;;;;;;;;32.20;87.80;;;;;;4177438;28;19929;-64
2022/10/25 08:58:25;;;;;;;;;;;32.20;87.90;;;;;;4208117;28;20037;-65
2022/10/25 09:00:31;;;;;;;;;;;32.20;88.20;;;;;;4176811;28;19935;-65
2022/10/25 09:02:37;;;;;;;;;;;32.10;88.10;;;;;;4177561;28;20361;-64
2022/10/25 09:04:41;;;;;;;;;;;32.20;88.00;;;;;;4200792;28;19955;-65
2022/10/25 09:07:12;;;;;;;;;;;32.10;88.30;;;;;;4199311;28;20382;-64
2022/10/25 09:09:24;;;;;;;;;;;32.10;88.00;;;;;;4191528;28;20382;-65
2022/10/25 09:11:46;;;;;;;;;;;32.10;88.20;;;;;;4193590;28;20333;-65
2022/10/25 09:13:50;;;;;;;;;;;32.20;89.00;;;;;;4193069;28;20310;-64
2022/10/25 09:16:04;;;;;;;;;;;32.20;89.20;;;;;;4193935;28;19964;-65
2022/10/25 09:18:13;;;;;;;;;;;32.10;89.20;;;;;;4194406;28;20685;-64
2022/10/25 09:20:21;;;;;;;;;;;32.20;89.00;;;;;;4175812;28;19935;-66
2022/10/25 09:22:29;;;;;;;;;;;32.20;88.90;;;;;;4176704;28;19925;-64
2022/10/25 09:24:59;;;;;;;;;;;32.10;89.30;;;;;;4207109;28;20018;-65
2022/10/25 09:27:07;;;;;;;;;;;32.00;89.10;;;;;;4193877;28;19932;-65
2022/10/25 09:29:35;;;;;;;;;;;32.00;88.90;;;;;;4207306;28;19934;-65
2022/10/25 09:31:43;;;;;;;;;;;32.00;89.10;;;;;;4192852;28;19962;-65
2022/10/25 09:33:48;;;;;;;;;;;31.90;89.50;;;;;;4192431;28;19982;-65
2022/10/25 09:35:57;;;;;;;;;;;31.90;89.60;;;;;;4189378;28;19950;-65
2022/10/25 09:38:27;;;;;;;;;;;31.90;89.70;;;;;;4193794;28;19939;-65
2022/10/25 09:40:50;;;;;;;;;;;31.80;89.60;;;;;;4193717;28;19997;-65
2022/10/25 09:43:06;;;;;;;;;;;31.80;89.60;;;;;;4195388;28;19929;-64
2022/10/25 09:45:17;;;;;;;;;;;31.70;89.60;;;;;;4176759;28;19925;-65
2022/10/25 09:47:39;;;;;;;;;;;31.60;89.50;;;;;;4175617;28;20409;-64
2022/10/25 09:49:56;;;;;;;;;;;31.50;89.30;;;;;;4191723;28;19933;-64
2022/10/25 09:52:18;;;;;;;;;;;31.50;89.00;;;;;;4177132;28;20289;-65
2022/10/25 09:54:37;;;;;;;;;;;31.60;89.20;;;;;;4188960;28;19931;-65
2022/10/25 09:56:42;;;;;;;;;;;31.50;89.20;;;;;;4176049;28;19925;-65
2022/10/25 09:58:47;;;;;;;;;;;31.50;89.10;;;;;;4193710;28;19932;-66
2022/10/25 10:01:00;;;;;;;;;;;31.50;89.40;;;;;;4199044;28;20034;-66
2022/10/25 10:03:17;;;;;;;;;;;31.50;89.50;;;;;;4161339;28;19929;-66
2022/10/25 10:05:28;;;;;;;;;;;31.40;89.70;;;;;;4175728;28;19925;-65
2022/10/25 10:07:33;;;;;;;;;;;31.40;89.90;;;;;;4176502;28;19975;-65
2022/10/25 10:09:41;;;;;;;;;;;31.40;90.00;;;;;;4176928;28;20539;-65
2022/10/25 10:11:48;;;;;;;;;;;31.30;90.10;;;;;;4176659;28;19986;-65
2022/10/25 10:14:11;;;;;;;;;;;31.20;90.10;;;;;;4203289;28;19928;-66
2022/10/25 10:16:17;;;;;;;;;;;31.20;90.30;;;;;;4193461;28;19932;-66
2022/10/25 10:18:40;;;;;;;;;;;31.20;90.40;;;;;;4193543;28;20631;-64
2022/10/25 10:21:07;;;;;;;;;;;31.10;90.40;;;;;;4176291;28;19925;-63
2022/10/25 10:23:12;;;;;;;;;;;31.10;90.50;;;;;;4173003;28;19925;-64
2022/10/25 10:25:18;;;;;;;;;;;31.10;90.60;;;;;;4176389;28;20646;-63
2022/10/25 10:27:24;;;;;;;;;;;31.00;90.80;;;;;;4195097;28;20324;-66
2022/10/25 10:29:30;;;;;;;;;;;31.00;90.90;;;;;;4195898;28;20003;-65
2022/10/25 10:31:38;;;;;;;;;;;30.90;90.90;;;;;;4180156;28;20729;-65
2022/10/25 10:33:49;;;;;;;;;;;30.90;91.00;;;;;;4178345;28;20402;-64
2022/10/25 10:35:57;;;;;;;;;;;30.90;91.00;;;;;;4183362;28;19975;-65
2022/10/25 10:38:19;;;;;;;;;;;30.80;91.20;;;;;;4198146;28;19925;-64
2022/10/25 10:40:24;;;;;;;;;;;30.70;91.20;;;;;;4210799;28;19966;-66
2022/10/25 10:42:35;;;;;;;;;;;30.70;91.30;;;;;;4196319;28;19947;-65
2022/10/25 10:44:40;;;;;;;;;;;30.70;91.50;;;;;;4194757;28;19929;-65
2022/10/25 10:46:48;;;;;;;;;;;30.60;91.70;;;;;;4208783;28;20340;-65
2022/10/25 10:48:57;;;;;;;;;;;30.60;91.70;;;;;;4196305;28;20383;-65
2022/10/25 10:51:02;;;;;;;;;;;30.60;91.90;;;;;;4175332;28;20609;-65
2022/10/25 10:53:19;;;;;;;;;;;30.50;92.20;;;;;;4193146;28;20316;-65
2022/10/25 10:55:27;;;;;;;;;;;30.50;92.40;;;;;;4170974;28;19928;-65
2022/10/25 10:57:31;;;;;;;;;;;30.40;92.50;;;;;;4186463;28;20497;-65
2022/10/25 10:59:37;;;;;;;;;;;30.30;92.40;;;;;;4210474;28;19931;-65
2022/10/25 11:01:45;;;;;;;;;;;30.30;92.60;;;;;;4185499;28;19928;-65
2022/10/25 11:03:54;;;;;;;;;;;30.20;92.80;;;;;;4195226;28;19937;-65
2022/10/25 11:06:06;;;;;;;;;;;30.20;92.90;;;;;;4207158;28;19924;-65
2022/10/25 11:08:15;;;;;;;;;;;30.20;93.00;;;;;;4207102;28;20399;-65
2022/10/25 11:10:41;;;;;;;;;;;30.10;93.10;;;;;;4203569;28;19961;-65
2022/10/25 11:12:45;;;;;;;;;;;30.10;93.00;;;;;;4190538;28;19928;-65
2022/10/25 11:14:54;;;;;;;;;;;30.10;93.10;;;;;;4204950;28;19931;-66
2022/10/25 11:17:01;;;;;;;;;;;30.10;93.30;;;;;;4174235;28;20615;-65
2022/10/25 11:19:23;;;;;;;;;;;30.00;93.30;;;;;;4181111;28;19985;-66
2022/10/25 11:21:36;;;;;;;;;;;30.00;93.30;;;;;;4190991;28;19931;-66
2022/10/25 11:23:59;;;;;;;;;;;30.00;93.00;;;;;;4181744;28;20047;-65
2022/10/25 11:26:12;;;;;;;;;;;30.00;92.80;;;;;;4189168;28;20448;-65
2022/10/25 11:28:25;;;;;;;;;;;30.00;92.80;;;;;;4182739;28;20035;-65
2022/10/25 11:30:38;;;;;;;;;;;30.00;92.90;;;;;;4193547;28;19951;-66
2022/10/25 11:32:52;;;;;;;;;;;30.00;92.60;;;;;;4207455;28;19964;-66
2022/10/25 11:35:10;;;;;;;;;;;30.00;92.50;;;;;;4195090;28;19932;-65
2022/10/25 11:37:17;;;;;;;;;;;30.00;92.50;;;;;;4192383;28;19929;-66
2022/10/25 11:39:34;;;;;;;;;;;30.00;92.40;;;;;;4191768;28;20034;-66
2022/10/25 11:41:42;;;;;;;;;;;29.90;92.50;;;;;;4206713;28;19939;-66
2022/10/25 11:43:51;;;;;;;;;;;29.80;92.50;;;;;;4194155;28;20027;-66
2022/10/25 11:46:07;;;;;;;;;;;29.90;92.50;;;;;;4193807;28;19982;-66
2022/10/25 11:48:34;;;;;;;;;;;29.90;92.50;;;;;;4194432;28;19928;-66
2022/10/25 11:50:51;;;;;;;;;;;29.90;92.40;;;;;;4193273;28;19936;-66
2022/10/25 11:53:34;;;;;;;;;;;29.90;92.60;;;;;;4184275;28;19981;-66
2022/10/25 11:55:46;;;;;;;;;;;29.90;92.40;;;;;;4135119;28;19976;-66
2022/10/25 11:57:54;;;;;;;;;;;29.90;92.40;;;;;;4135532;28;19930;-66
2022/10/25 12:00:11;;;;;;;;;;;29.90;92.40;;;;;;4134986;28;19977;-66
2022/10/25 12:02:30;;;;;;;;;;;29.90;92.40;;;;;;4138314;28;20000;-66
2022/10/25 12:04:40;;;;;;;;;;;29.90;92.40;;;;;;4154069;28;19936;-65
2022/10/25 12:07:05;;;;;;;;;;;29.90;92.40;;;;;;4152241;28;19933;-65
2022/10/25 12:09:24;;;;;;;;;;;29.80;92.50;;;;;;4142477;28;19925;-66
2022/10/25 12:11:30;;;;;;;;;;;29.80;92.50;;;;;;4137937;28;19930;-66
2022/10/25 12:14:20;;;;;;;;;;;29.80;92.60;;;;;;4154473;28;20414;-66
2022/10/25 12:16:42;;;;;;;;;;;29.80;92.70;;;;;;4153932;28;20552;-66
2022/10/25 12:19:09;;;;;;;;;;;29.70;92.70;;;;;;4152132;28;19937;-66
2022/10/25 12:21:19;;;;;;;;;;;29.70;92.70;;;;;;4152292;28;19985;-66
2022/10/25 12:23:28;;;;;;;;;;;29.70;92.80;;;;;;4134086;28;19929;-65
2022/10/25 12:25:33;;;;;;;;;;;29.70;92.90;;;;;;4156697;28;19925;-66
2022/10/25 12:27:38;;;;;;;;;;;29.70;93.00;;;;;;4180072;28;19928;-66
2022/10/25 12:29:55;;;;;;;;;;;29.70;93.10;;;;;;4207068;28;20394;-66
2022/10/25 12:32:00;;;;;;;;;;;29.70;93.10;;;;;;4207124;28;20390;-65